This site, now in its 15th season, is a labour of love and fun from one of Ottawa's most avid time trialists and number crunchers. It adheres to and is permitted by the laws of Canada, promotes the objectives of every bicycle club whose results are shown, and is donated free of charge by myself for your enjoyment and usage. If you would like results from series you ride in to be shown here, give me (celia@drmath.ca) a shout!


Index Page
ATT OTT WTT AATT CFCTT VVVTT
Help resultformat:
Case-sensitive

OBC Open TT Series - 2008-Jul-31 - 15km (Rockliffe Pkwy) (EvtFactor = 0.9557)

Weather (18:00): Mostly Cloudy. Temp.: 25C, Humidity: 58%, Dew Point: 16C, Wind: NW 21km/h, Pressure: 100.1kPa, Vis: 24km, Humidex: 30.
Weather (19:00): Partly Cloudy. Temp.: 25C, Humidity: 61%, Dew Point: 17C, Wind: WNW 21km/h, Pressure: 100.1kPa, Vis: 24km, Humidex: 30.
Weather (20:00): Partly Cloudy. Temp.: 23C, Humidity: 67%, Dew Point: 17C, Wind: W 11km/h, Pressure: 100.2kPa, Vis: 24km, Humidex: 29.

Send photos with description (when/where/what) of yourself on or off of bike to celia@drmath.ca

These results were first posted on the OBC site circa 11:00 on 2008-Jul-31 and are available here for your added pleasure and analysis.

Due to the very strong winds from the Northwest at registration time, nobody thought that this past Thursday would be a fast night, but the winds dropped as the evening proceeded, and this, along with the low air pressure contributed to some incredible results. A big congratulation goes to Michael Nash for breaking, by one second, the long-standing record set of 18:40 by Gord Fraser back on 1995-Jun-22! As well, there were All-time database bests in 6 different categories:

In addition to the top category performances, 47 people bettered or equaled their previous 2008 OTT best and 34 improved upon their previous database best 15km TT. Good riding!
 
 

BESTS?
 
Y 1 Nash, Michael  OBC 18:39 48.257 1/77 VBM 1/16 1.0352
Y 2 Sebastien-Perron, Jean --- 18:52 47.703 2/77 SEM 1/7  
3 Amos, Ron  OBC/RWR 19:25 46.352 3/77 VBM 2/16 1.0104
4 Datars, Paul  OBC/RWR 19:28 46.233 4/77 VCM 1/12 1.0496
5 Rendall, Glen  RWR 19:33 46.036 5/77 VAM 1/12 1.0000
6 Tsilemos, Jim RWR 20:21 44.226 6/77 VAM 2/12 0.9805
7 Munden, David EMD 20:30 43.902 7/77 VAM 3/12 0.9662
8 Martin, David OBC 20:31 43.867 8/77 VAM 4/12 1.0648
9 Martel, Brad RWR 20:32 43.831 9/77 VBM 3/16 0.9734
10 Wakefield, Sean RWR 20:35 43.725 10/77 VAM 5/12  
11 Sudac, Rick  OBC/RWR 20:42 43.478 11/77 VCM 2/12 0.9385
12 Fulton, Sandy --- 20:48 43.269 12/77 SEM 2/7 1.0316
13 Parniak, Robert  OBC 20:51 43.165 13/77 VAM 6/12 1.2538
14 Wright, Sean CYC 20:56 42.994 14/77 VBM 4/16 0.9905
15 Martinet, Dominique OBC 21:00 42.857 15/77 VBM 5/16 1.0288
16 Cataford, Alex OBC 21:03 42.755 16/77 CAM 1/3 1.0143
17 Christie, Greg  OBC/RWR 21:05 42.688 17/77 VCM 3/12 0.9556
18 Henschel, Peter OBC 21:10 42.520 18/77 VBM 6/16 1.1000
19 Damen, Trevor OBC/EUR 21:12 42.453 19/77 JUM 1/1 1.0262
Sidhu, Joël ULT 21:12 42.453 19/77 SEM 3/7 0.9332
21 Orange, Robert RWR 21:22 42.122 21/77 VBM 7/16  
22 Olson, Chris CYC 21:24 42.056 22/77 VBM 8/16 1.1164
23 Morvan, Jacques  OBC 21:28 41.925 23/77 VDM 1/6 1.0047
Zappe, Erich RWR 21:28 41.925 23/77 VBM 9/16 0.8858
25 Romkey, Gary OBC/RWR 21:32 41.796 25/77 VDM 2/6 0.9885
26 McKay, Allison  OBC/RDO 21:36 41.667 26/77 VBF 1/8 1.0047
27 Cameron, Allen  OBC/RWR 21:39 41.570 27/77 VCM 4/12 1.0000
28 Posthuma, Hans  OBC 21:47 41.316 28/77 VCM 5/12 1.0657
Zuliani, Greg RWR 21:47 41.316 28/77 SEM 4/7 1.0161
30 Budgell, Glen  OBC 21:51 41.190 30/77 VCM 6/12 0.9706
31 Diaz, Rodrigo  OBC 21:52 41.159 31/77 VAM 7/12 1.0092
32 Spooner, Tricia  EMD 21:54 41.096 32/77 VAF 1/1 1.0300
33 Tregunno, Peter  OBC 22:03 40.816 33/77 VAM 8/12 0.9098
34 Farish, Neil  OBC/RWR 22:19 40.329 34/77 VCM 7/12 0.9472
35 Lennox, Marc OBC 22:20 40.299 35/77 VAM 9/12 1.0068
36 Bernard, Christopher APK 22:23 40.208 36/77 CAM 2/3  
Mellon, Alyssa  OBC 22:23 40.208 36/77 SEF 1/3 1.2173
38 Revesz, Erika  OBC 22:25 40.149 38/77 VCF 1/4 1.0022
39 Hinz, Richard OBC 22:35 39.852 39/77 VCM 8/12 1.0632
40 Grace, Darrin  OBC/EUR 22:36 39.823 40/77 VBM 10/16 1.0888
41 Coney, Sarah OBC 22:38 39.764 41/77 SEF 2/3 1.0425
42 Moerman, Bram  OBC 22:46 39.531 42/77 VDM 3/6 0.9934
43 Burdett, Avery  OBC 22:56 39.244 43/77 VDM 4/6 1.0264
44 Blagdon, Wendy  EMD 22:57 39.216 44/77 VBF 2/8 0.9571
45 Kerckhoff, Hermann 
(Much faster with the brakes not rubbing!)
RWR 23:00 39.130 45/77 VEM 1/1 1.0263
46 Hind, Terry OBC/EUR 23:10 38.849 46/77 VCM 9/12 1.0594
47 Simard, Martin OBC 23:16 38.682 47/77 VBM 11/16 1.1440
48 Orange, Kiernan OBC/RWR 23:23 38.489 48/77 CAM 3/3 1.0456
49 Blais, Bob OBC 23:26 38.407 49/77 VCM 10/12 1.0900
50 Wright, David OBC/RWR 23:30 38.298 50/77 VBM 12/16 1.0171
51 Wilkins, Carl  OBC 23:39 38.055 51/77 SEM 5/7 1.0320
52 Bernard, Audrey APK 23:40 38.028 52/77 CAF 1/2  
Marleau, Dianne  OBC/RWR 23:40 38.028 52/77 VBF 3/8 1.2240
54 Coney, Michael OBC 23:47 37.842 54/77 VDM 5/6 1.0148
55 Yaeger, Dave  OBC 23:57 37.578 55/77 VCM 11/12 1.0063
56 Imbrogno, Giorgio  OBC 24:00 37.500 56/77 VCM 12/12 1.0835
57 Langevin, Roger  OBC 24:03 37.422 57/77 VAM 10/12 1.0723
58 Beraud, Sophie OBC 24:09 37.267 58/77 SEF 3/3 1.0830
59 Desjardins, Marcel OBC 24:13 37.164 59/77 VDM 6/6 0.9354
60 Dionne, Suzanne  OBC 24:14 37.139 60/77 VBF 4/8 0.9816
61 Coney, Ingrid  OBC 24:28 36.785 61/77 VCF 2/4 1.0268
62 Laplante-Lamarche, Florence OBC 24:31 36.710 62/77 CAF 2/2 0.9401
63 Henry, Mike OBC 24:41 36.462 63/77 VAM 11/12 1.0769
64 Coldwell, Michael  ABC 24:49 36.266 64/77 VBM 13/16 0.9007
65 Hanley, Justin OBC 24:51 36.217 65/77 SEM 6/7 1.2288
66 Konantz, Patricia  OBC 24:52 36.193 66/77 VCF 3/4 1.0449
67 Levi, Cheryl OBC 24:55 36.120 67/77 VBF 5/8 1.1016
68 McInnis, Celia  OBC/ABC 24:56 36.096 68/77 VCF 4/4 0.9663
69 Kline, Patrick OBC 25:19 35.550 69/77 VBM 14/16 1.2311
70 McLaughlin, Brian OBC 25:22 35.480 70/77 VBM 15/16 1.1103
71 Robitaille, Brian 
(MTB: Front shocks dialed to plush setting for maximum comfort)
OBC 26:06 34.483 71/77 VBM 16/16 0.8596
72 Ingham, Alison 
(Lots of traffic at the turn!)
OBC 26:11 34.373 72/77 VBF 6/8 0.9604
73 Lavoie, Roger OBC 26:25 34.069 73/77 SEM 7/7  
74 McLaren, Louise  OBC 26:49 33.561 74/77 VBF 7/8 0.9432
75 Hart, Kate OBC/RWR 26:53 33.478 75/77 VBF 8/8 0.9560
76 Ferdinand, Edward OBC 27:12 33.088 76/77 VAM 12/12  
77 Wright, Geoffrey  OBC 29:14 30.787 77/77 VFM 1/1 1.0434
 
Average Speed of all of the above 77 finishes (1155km in 29:15:07):39.485
>>>Average of the Average Speeds for these 77 finishes39.804<<<
 

The number of data records shown above is 77
The server processing of your query took: 2 wallclock secs ( 0.11 usr + 0.00 sys = 0.11 CPU)

Thanks to our Helpers: Jetje Antonietti, Neil Farish, Peter Hamilton, Gunter Hauschildt, Andrea McKay, Alex McKnight.

     


Mar 21 (Good Friday)
Apr 24
May 1 May 6 (10km) May 8 May 13 (10km) May 15 May 20 May 20 (10km) May 22 May 27 May 27 (10km) May 29
Jun 1 (40km) Jun 3 Jun 3 Jun 5 Jun 10 Jun 10 Jun 12 Jun 17 Jun 17 Jun 19 Jun 24 Jun 24 Jun 26
Jul 1 (cancelled - ) Jul 2 Jul 3 Jul 6 (40km) Jul 8 Jul 8 Jul 10 Jul 15 Jul 15 Jul 17 Jul 22 Jul 22 Jul 24 Jul 27 (40km) Jul 29 Jul 29
  Jul 31  
Aug 5 Aug 5 Aug 7 Aug 10 (40km) Aug 12 Aug 12 Aug 14 Aug 19 Aug 19 Aug 21 Aug 26 Aug 26 (Invitational) Aug 28
Sep 2 Sep 4 Sep 7 (40km) Sep 9 Sep 11 Sep 16 Sep 21 (40km) Sep 23 Sep 30

OTT Rankings
Best       Best by category
WTT Rankings for OBC Members
5 Best Speeds     5 Best Speeds by category
OBC Member Best Three 15km Rankings
Overall     by category     age-Hcap Female   age-Hcap Male
OBC BAR Ranking
Overall     by category     Rider "Consistency-Graph"
ABC BAR Ranking
Overall     by category     Rider "Consistency-Graph"
Other years
TT Calculator All TT People All TT events
ABC Home VVV Home
CKAP GOLD MEDAL
Other Links

Note: OTT data from 2003 through 2006-Apr-14 and 2007-Apr-06-? and WTT from 2008-? is taken from the official OBC site.

Please send your comments and suggestions to: Celia McInnis
Copyright © 1998-2011 Celia McInnis. All rights reserved. Links are welcomed.